Latest Weather Observations for Ferny Creek

IDV60901

Issued at 8:55 am EDT Wednesday 22 October 2014 (issued every 10 minutes, with the page automatically refreshed every 10 minutes)

About weather observations | Map of Melbourne area stations | Latest observations for Melbourne area | Other Formats
Station Details ID: 086266 Name: FERNY CREEK Lat: -37.87 Lon: 145.35 Height: 512.9 m
Data from the previous 72 hours. | See also: Recent months at Ferny Creek
Date/Time
EDT
Tmp

°C
App
Tmp
°C
Dew
Point
°C
Rel
Hum
%
Delta-T

°C
Wind Press
QNH
hPa
Press
MSL
hPa
Rain
since
9 am
mm
Dir
 
Spd
km/h
Gust
km/h
Spd
kts
Gust
kts
22/08:30am 18.2 15.7 9.8 58 4.6 N 13 30 7 16 1021.1 1020.9 0.0
22/08:00am 18.0 15.5 9.6 58 4.5 N 13 41 7 22 1021.4 1021.3 0.0
22/07:30am 17.9 14.8 9.0 56 4.8 N 15 39 8 21 1021.3 1021.2 0.0
22/07:00am 17.6 14.8 8.5 55 4.8 N 13 32 7 17 1021.3 1021.2 0.0
22/06:30am 17.6 14.7 8.2 54 4.9 N 13 32 7 17 1021.2 1021.1 0.0
22/06:00am 17.6 15.5 8.2 54 4.9 N 9 19 5 10 1021.2 1021.1 0.0
22/05:30am 17.8 16.1 8.4 54 5.0 N 7 22 4 12 1021.0 1020.8 0.0
22/05:00am 17.8 15.8 8.6 55 4.9 N 9 22 5 12 1020.8 1020.7 0.0
22/04:30am 17.9 16.3 8.7 55 4.9 N 7 20 4 11 1021.1 1020.9 0.0
22/04:00am 17.9 16.2 8.5 54 5.0 N 7 20 4 11 1021.4 1021.3 0.0
22/03:30am 18.1 16.6 8.4 53 5.1 NNW 6 13 3 7 1021.6 1021.5 0.0
22/03:00am 18.6 16.9 8.3 51 5.4 NNW 7 15 4 8 1021.8 1021.7 0.0
22/02:30am 18.9 17.8 8.3 50 5.6 NNW 4 7 2 4 1022.0 1021.9 0.0
22/02:00am 19.2 17.6 8.2 49 5.8 N 6 11 3 6 1022.2 1022.1 0.0
22/01:30am 18.8 17.3 8.5 51 5.5 N 6 9 3 5 1022.6 1022.5 0.0
22/01:00am 18.6 17.1 8.6 52 5.3 N 6 17 3 9 1023.2 1023.1 0.0
22/12:30am 18.8 17.4 8.7 52 5.4 N 6 11 3 6 1023.6 1023.5 0.0
22/12:00am 19.0 18.0 8.9 52 5.4 N 4 9 2 5 1024.0 1023.9 0.0
 
Date/Time
EDT
Tmp

°C
App
Tmp
°C
Dew
Point
°C
Rel
Hum
%
Delta-T

°C
Wind Press
QNH
hPa
Press
MSL
hPa
Rain
since
9 am
mm
Dir
 
Spd
km/h
Gust
km/h
Spd
kts
Gust
kts
21/11:30pm 19.2 18.2 8.8 51 5.6 N 4 7 2 4 1024.2 1024.1 0.0
21/11:00pm 19.5 18.5 8.8 50 5.7 N 4 7 2 4 1024.4 1024.3 0.0
21/10:30pm 19.0 18.2 9.5 54 5.2 N 4 7 2 4 1024.5 1024.5 0.0
21/10:00pm 18.5 17.6 9.3 55 4.9 N 4 6 2 3 1024.7 1024.7 0.0
21/09:30pm 18.4 17.5 9.2 55 4.9 NNW 4 7 2 4 1024.5 1024.5 0.0
21/09:00pm 17.7 17.4 10.1 61 4.1 N 2 6 1 3 1024.5 1024.5 0.0
21/08:30pm 16.3 15.9 11.0 71 2.9 ENE 4 6 2 3 1024.4 1024.3 0.0
21/08:00pm 17.0 16.3 11.5 70 3.0 ENE 6 7 3 4 1024.2 1024.1 0.0
21/07:30pm 17.4 16.8 11.7 69 3.2 ENE 6 7 3 4 1024.2 1024.1 0.0
21/07:00pm 18.4 17.9 11.9 66 3.7 ENE 6 9 3 5 1024.2 1024.1 0.0
21/06:30pm 19.5 19.4 12.0 62 4.3 E 4 7 2 4 1024.1 1024.0 0.0
21/06:00pm 21.1 20.0 8.4 44 6.8 NNE 4 11 2 6 1024.2 1024.1 0.0
21/05:30pm 21.9 20.1 8.1 41 7.4 NE 7 15 4 8 1024.2 1024.1 0.0
21/05:00pm 22.5 20.7 7.1 37 8.1 NE 6 13 3 7 1024.2 1024.1 0.0
21/04:30pm 22.7 21.9 9.5 43 7.3 NNE 4 7 2 4 1024.5 1024.5 0.0
21/04:00pm 22.7 21.9 9.8 44 7.1 NE 4 7 2 4 1024.8 1024.8 0.0
21/03:30pm 22.8 21.4 8.9 41 7.6 NNW 6 15 3 8 1025.2 1025.1 0.0
21/03:00pm 22.2 21.2 11.0 49 6.3 N 7 11 4 6 1025.6 1025.5 0.0
21/02:30pm 21.9 21.2 10.1 47 6.6 NNW 4 13 2 7 1025.9 1025.8 0.0
21/02:00pm 21.5 20.7 11.2 52 5.8 N 6 11 3 6 1026.3 1026.3 0.0
21/01:30pm 21.2 20.4 11.0 52 5.8 N 6 9 3 5 1026.7 1026.7 0.0
21/01:00pm 20.9 20.0 11.3 54 5.4 NNE 7 15 4 8 1027.0 1027.0 0.0
21/12:30pm 19.7 18.6 10.1 54 5.3 N 6 11 3 6 1027.2 1027.1 0.0
21/12:00pm 19.8 19.0 11.0 57 4.9 NNE 6 13 3 7 1027.4 1027.3 0.0
21/11:30am 18.8 17.6 10.4 58 4.6 NW 7 22 4 12 1027.7 1027.6 0.0
21/11:00am 18.2 17.0 9.5 57 4.7 N 6 13 3 7 1027.9 1027.9 0.0
21/10:30am 17.9 17.1 9.5 58 4.5 N 4 9 2 5 1027.8 1027.8 0.0
21/10:00am 17.6 16.9 10.2 62 4.0 WNW 4 13 2 7 1027.8 1027.8 0.0
21/09:30am 17.0 15.9 9.9 63 3.8 ENE 6 9 3 5 1027.7 1027.6 0.0
21/09:00am 15.8 14.6 8.1 60 4.0 ENE 4 7 2 4 1027.6 1027.5 0.0
21/08:30am 14.2 13.0 6.6 60 3.8 ENE 2 4 1 2 1027.5 1027.4 0.0
21/08:00am 14.0 13.3 7.1 63 3.4 CALM 0 0 0 0 1027.0 1027.0 0.0
21/07:30am 12.2 11.6 7.3 72 2.4 CALM 0 0 0 0 1026.6 1026.6 0.0
21/07:00am 9.8 8.5 6.2 78 1.7 WNW 2 6 1 3 1026.4 1026.4 0.0
21/06:30am 9.9 8.5 5.3 73 2.2 NW 2 4 1 2 1026.1 1026.1 0.0
21/06:00am 10.2 8.5 5.8 74 2.1 NW 4 6 2 3 1025.7 1025.6 0.0
21/05:30am 10.2 8.6 6.2 76 1.9 NNW 4 7 2 4 1025.6 1025.5 0.0
21/05:00am 7.2 5.6 4.5 83 1.2 ENE 2 4 1 2 1025.6 1025.5 0.0
21/04:30am 7.5 5.1 4.1 79 1.5 ENE 6 9 3 5 1025.7 1025.6 0.0
21/04:00am 8.2 7.0 4.4 77 1.7 CALM 0 2 0 1 1025.7 1025.6 0.0
21/03:30am 8.1 6.1 4.5 78 1.6 NE 4 7 2 4 1025.8 1025.7 0.0
21/03:00am 8.3 6.0 4.7 78 1.6 NE 6 9 3 5 1025.9 1025.8 0.0
21/02:30am 7.7 5.8 4.8 82 1.3 NE 4 7 2 4 1026.0 1025.9 0.0
21/02:00am 7.3 5.8 5.0 85 1.0 ENE 2 4 1 2 1026.3 1026.3 0.0
21/01:30am 7.3 5.4 4.8 84 1.1 ENE 4 6 2 3 1026.5 1026.5 0.0
21/01:00am 7.2 5.3 4.9 85 1.0 ENE 4 6 2 3 1026.8 1026.8 0.0
21/12:30am 7.3 4.8 5.0 85 1.0 E 7 11 4 6 1027.0 1027.0 0.0
21/12:00am 7.6 5.4 5.1 84 1.1 E 6 11 3 6 1027.3 1027.2 0.0
 
Date/Time
EDT
Tmp

°C
App
Tmp
°C
Dew
Point
°C
Rel
Hum
%
Delta-T

°C
Wind Press
QNH
hPa
Press
MSL
hPa
Rain
since
9 am
mm
Dir
 
Spd
km/h
Gust
km/h
Spd
kts
Gust
kts
20/11:30pm 7.7 5.5 5.2 84 1.1 ENE 6 11 3 6 1027.3 1027.2 0.0
20/11:00pm 7.3 4.9 5.1 86 1.0 ENE 7 13 4 7 1027.3 1027.2 0.0
20/10:30pm 7.8 5.4 5.3 84 1.1 ENE 7 11 4 6 1027.5 1027.4 0.0
20/10:00pm 7.9 5.5 5.4 84 1.1 ENE 7 11 4 6 1027.7 1027.6 0.0
20/09:30pm 8.5 6.4 5.6 82 1.4 E 6 11 3 6 1027.7 1027.6 0.0
20/09:00pm 8.9 6.6 5.8 81 1.4 E 7 15 4 8 1027.5 1027.4 0.0
20/08:30pm 9.5 6.9 6.2 80 1.6 E 9 17 5 9 1027.2 1027.1 0.0
20/08:00pm 10.3 7.8 6.6 78 1.8 E 9 17 5 9 1027.0 1027.0 0.0
20/07:30pm 11.0 7.8 6.7 75 2.1 E 13 22 7 12 1026.8 1026.8 0.0
20/07:00pm 11.9 8.7 6.8 71 2.5 E 13 24 7 13 1026.6 1026.6 0.0
20/06:30pm 12.7 10.7 7.2 69 2.7 E 7 13 4 7 1026.9 1026.9 0.0
20/06:00pm 13.7 11.2 6.6 62 3.5 ESE 9 20 5 11 1026.9 1026.9 0.0
20/05:30pm 14.3 11.4 6.6 60 3.8 ESE 11 22 6 12 1027.0 1027.0 0.0
20/05:00pm 15.1 12.2 6.4 56 4.3 ESE 11 22 6 12 1026.9 1026.9 0.0
20/04:30pm 15.3 12.6 5.8 53 4.7 ESE 9 19 5 10 1026.9 1026.9 0.0
20/04:00pm 15.6 12.7 6.3 54 4.6 E 11 20 6 11 1026.9 1026.9 0.0
20/03:30pm 15.3 12.3 6.1 54 4.6 E 11 30 6 16 1027.3 1027.2 0.0
20/03:00pm 15.2 12.1 5.7 53 4.6 E 11 22 6 12 1027.4 1027.3 0.0
20/02:30pm 14.7 11.2 5.5 54 4.5 E 13 24 7 13 1027.7 1027.6 0.0
20/02:00pm 14.5 11.1 6.1 57 4.1 ESE 13 26 7 14 1028.0 1028.0 0.0
20/01:30pm 14.0 10.4 5.1 55 4.3 ESE 13 22 7 12 1028.0 1028.0 0.0
20/01:00pm 13.7 10.0 6.1 60 3.7 ESE 15 28 8 15 1028.0 1028.0 0.0
20/12:30pm 13.1 9.6 5.5 60 3.7 E 13 24 7 13 1028.4 1028.4 0.0
20/12:00pm 13.1 10.2 6.5 64 3.2 E 11 26 6 14 1028.6 1028.6 0.0
20/11:30am 12.1 8.7 5.7 65 3.1 ESE 13 24 7 13 1028.8 1028.8 0.0
20/11:00am 11.4 7.0 4.6 63 3.1 E 17 33 9 18 1028.9 1028.9 0.0
20/10:30am 10.4 5.8 3.9 64 3.0 ESE 17 30 9 16 1029.0 1029.0 0.0
20/10:00am 9.8 5.5 3.3 64 2.9 ESE 15 26 8 14 1029.3 1029.2 0.0
20/09:30am 9.2 4.7 4.0 70 2.3 ESE 17 37 9 20 1029.1 1029.1 0.0
20/09:00am 8.3 3.6 3.2 70 2.2 ESE 17 28 9 15 1028.9 1028.9 1.0
20/08:30am 7.9 3.6 3.4 73 2.0 ESE 15 30 8 16 1028.8 1028.8 1.0
20/08:00am 7.1 2.8 3.0 75 1.8 ESE 15 30 8 16 1028.4 1028.4 1.0
20/07:30am 6.4 1.7 3.2 80 1.4 ESE 17 33 9 18 1028.3 1028.3 1.0
20/07:00am 5.7 1.4 3.4 85 1.0 ESE 15 26 8 14 1028.3 1028.3 1.0
20/06:30am 5.2 1.4 3.7 90 0.6 ESE 13 26 7 14 1028.1 1028.1 1.0
20/06:00am 5.3 1.9 3.8 90 0.6 ESE 11 22 6 12 1028.1 1028.1 1.0
20/05:30am 5.6 1.5 4.4 92 0.5 ESE 15 22 8 12 1027.9 1027.9 1.0
20/05:00am 6.0 2.0 5.1 94 0.4 ESE 15 28 8 15 1027.8 1027.8 1.0
20/04:30am 6.4 2.6 5.8 96 0.3 ESE 15 24 8 13 1027.8 1027.8 1.0
20/04:00am 6.6 3.3 6.2 97 0.2 ESE 13 30 7 16 1027.9 1027.9 1.0
20/03:30am 7.1 3.5 6.8 98 0.1 ESE 15 30 8 16 1028.0 1028.0 1.0
20/03:00am 7.2 4.0 6.9 98 0.1 ESE 13 26 7 14 1028.0 1028.0 1.0
20/02:30am 7.2 4.4 6.8 97 0.2 ESE 11 28 6 15 1028.3 1028.3 0.8
20/02:00am 7.6 5.6 7.3 98 0.1 ESE 7 19 4 10 1028.3 1028.3 0.4
20/01:30am 7.6 5.2 7.2 97 0.2 ESE 9 19 5 10 1028.4 1028.4 0.4
20/01:00am 7.7 5.0 7.3 97 0.2 SE 11 26 6 14 1028.6 1028.6 0.2
20/12:30am 8.1 5.5 7.7 97 0.2 ESE 11 24 6 13 1028.4 1028.4 0.2
20/12:00am 8.4 6.6 8.0 97 0.2 ESE 7 17 4 9 1028.2 1028.2 0.0
 
Date/Time
EDT
Tmp

°C
App
Tmp
°C
Dew
Point
°C
Rel
Hum
%
Delta-T

°C
Wind Press
QNH
hPa
Press
MSL
hPa
Rain
since
9 am
mm
Dir
 
Spd
km/h
Gust
km/h
Spd
kts
Gust
kts
19/11:30pm 8.7 6.6 8.3 97 0.2 SE 9 24 5 13 1028.2 1028.2 0.0
19/11:00pm 9.3 7.6 8.5 95 0.4 SSE 7 19 4 10 1028.1 1028.1 0.0
19/10:30pm 10.1 9.1 9.0 93 0.6 E 4 9 2 5 1027.7 1027.6 0.0
19/10:00pm 10.3 8.9 8.9 91 0.7 S 6 13 3 7 1027.8 1027.8 0.0
19/09:30pm 10.9 9.6 9.2 89 0.9 S 6 15 3 8 1027.6 1027.5 0.0
19/09:00pm 11.0 10.1 9.3 89 0.9 ESE 4 9 2 5 1026.4 1026.4 0.0
19/08:30pm 11.1 10.2 9.2 88 1.0 SE 4 9 2 5 1025.8 1025.7 0.0
19/08:00pm 11.4 10.6 9.5 88 1.0 SE 4 9 2 5 1025.6 1025.5 0.0
19/07:30pm 11.5 11.1 9.6 88 1.0 E 2 6 1 3 1025.3 1025.2 0.0
19/07:00pm 11.9 10.6 9.8 87 1.1 S 7 17 4 9 1024.1 1024.0 0.0
19/06:30pm 12.5 10.5 10.2 86 1.2 SSW 11 22 6 12 1023.3 1023.2 0.0
19/06:00pm 13.8 12.8 11.0 83 1.5 SSW 7 17 4 9 1022.6 1022.5 0.0
19/05:30pm 15.5 13.5 10.3 71 2.8 SW 11 19 6 10 1021.9 1021.8 0.0
19/05:12pm 16.6 14.0 9.5 63 3.8 SW 13 20 7 11 1021.5 1021.4 0.0
19/05:00pm 21.6 20.2 7.1 39 7.6 W 4 7 2 4 1021.3 1021.2 0.0
19/04:30pm 23.1 20.6 4.6 30 9.4 NNW 7 19 4 10 1021.0 1020.8 0.0
19/04:00pm 23.9 21.0 4.8 29 9.7 N 9 20 5 11 1020.8 1020.7 0.0
19/03:30pm 22.9 20.6 7.4 37 8.3 N 9 24 5 13 1020.8 1020.7 0.0
19/03:00pm 23.3 20.5 7.0 35 8.6 N 11 22 6 12 1021.0 1020.8 0.0
19/02:30pm 22.6 20.2 7.2 37 8.2 N 9 22 5 12 1021.3 1021.2 0.0
19/02:00pm 22.1 19.1 5.9 35 8.3 N 11 28 6 15 1021.7 1021.6 0.0
19/01:30pm 22.2 19.6 6.0 35 8.4 N 9 22 5 12 1021.8 1021.7 0.0
19/01:00pm 22.0 19.2 5.0 33 8.6 N 9 19 5 10 1021.8 1021.7 0.0
19/12:30pm 21.9 18.3 4.9 33 8.6 N 13 28 7 15 1021.9 1021.8 0.0
19/12:00pm 21.4 17.6 4.0 32 8.6 N 13 32 7 17 1022.1 1022.0 0.0
19/11:30am 20.4 17.0 4.0 34 8.1 N 11 26 6 14 1022.3 1022.2 0.0
19/11:00am 21.2 17.7 3.4 31 8.7 N 11 26 6 14 1022.7 1022.6 0.0
19/10:30am 19.9 17.0 4.4 36 7.7 N 9 24 5 13 1023.1 1023.0 0.0
19/10:00am 19.3 15.8 3.5 35 7.6 N 11 22 6 12 1023.1 1023.0 0.0
19/09:30am 19.4 16.4 4.0 36 7.5 N 9 28 5 15 1023.2 1023.1 0.0
19/09:00am 18.7 15.4 4.5 39 7.0 N 11 30 6 16 1023.2 1023.1 0.0

Latest Capital City Observations: Canberra | Sydney | Melbourne | Brisbane | Adelaide | Perth | Hobart | Darwin

Other Formats:

Comma delimited format used in spreadsheet applications
http://www.bom.gov.au/fwo/IDV60901/IDV60901.94872.axf

JavaScript Object Notation format (JSON) in row-major order
http://www.bom.gov.au/fwo/IDV60901/IDV60901.94872.json